Time;durP1;ratioP1;P1;durP2;ratioP2;P2;SDS_P1;SDS_P2;PMS_P1;PMS_P2;Temp;Humidity;BMP_temperature;BMP_pressure;BME280_temperature;BME280_humidity;BME280_pressure;Samples;Min_cycle;Max_cycle;Signal;HPM_P1;HPM_P2
2021/06/15 00:01:24;;;;;;;19.03;17.03;;;;;;;;;;5136065;27;20451;-67
2021/06/15 00:03:51;;;;;;;19.03;16.63;;;;;;;;;;5136056;27;20445;-66
2021/06/15 00:06:19;;;;;;;24.27;17.83;;;;;;;;;;5136242;27;20874;-66
2021/06/15 00:08:46;;;;;;;18.67;16.77;;;;;;;;;;5135577;27;20478;-68
2021/06/15 00:11:13;;;;;;;21.77;18.23;;;;;;;;;;5135467;27;21031;-66
2021/06/15 00:13:41;;;;;;;24.43;17.20;;;;;;;;;;5136579;27;20525;-66
2021/06/15 00:16:09;;;;;;;20.77;16.50;;;;;;;;;;5135488;27;20963;-66
2021/06/15 00:18:37;;;;;;;26.37;17.83;;;;;;;;;;5136124;27;20525;-67
2021/06/15 00:21:04;;;;;;;20.27;17.23;;;;;;;;;;5135372;27;20448;-66
2021/06/15 00:23:32;;;;;;;22.13;17.20;;;;;;;;;;5135396;27;20433;-67
2021/06/15 00:25:59;;;;;;;24.73;18.27;;;;;;;;;;5135280;27;20445;-66
2021/06/15 00:28:26;;;;;;;19.13;17.03;;;;;;;;;;5135224;27;20548;-67
2021/06/15 00:30:53;;;;;;;25.63;18.40;;;;;;;;;;5135456;27;20470;-67
2021/06/15 00:33:22;;;;;;;25.50;17.10;;;;;;;;;;5135442;27;20462;-67
2021/06/15 00:35:49;;;;;;;20.43;17.00;;;;;;;;;;5135832;27;20799;-66
2021/06/15 00:38:16;;;;;;;21.87;17.27;;;;;;;;;;5135219;27;20444;-66
2021/06/15 00:40:43;;;;;;;24.30;16.23;;;;;;;;;;5135344;27;20521;-66
2021/06/15 00:43:11;;;;;;;16.73;15.00;;;;;;;;;;5134922;27;20446;-66
2021/06/15 00:45:38;;;;;;;19.50;15.60;;;;;;;;;;5134936;27;20445;-66
2021/06/15 00:48:05;;;;;;;20.43;16.10;;;;;;;;;;5135169;27;20470;-66
2021/06/15 00:50:34;;;;;;;20.27;15.67;;;;;;;;;;5135203;27;20464;-66
2021/06/15 00:53:01;;;;;;;23.00;16.00;;;;;;;;;;5134688;27;20477;-67
2021/06/15 00:55:28;;;;;;;18.60;15.20;;;;;;;;;;5135089;27;20437;-66
2021/06/15 00:57:56;;;;;;;19.73;15.97;;;;;;;;;;5134989;27;20441;-66
2021/06/15 01:00:23;;;;;;;19.57;16.00;;;;;;;;;;5134687;27;20599;-66
2021/06/15 01:02:50;;;;;;;19.20;15.50;;;;;;;;;;5134676;27;20438;-66
2021/06/15 01:05:19;;;;;;;20.20;14.47;;;;;;;;;;5134839;27;20439;-66
2021/06/15 01:07:50;;;;;;;17.07;15.27;;;;;;;;;;5134189;27;20450;-66
2021/06/15 01:10:23;;;;;;;16.40;14.77;;;;;;;;;;5134988;27;20780;-66
2021/06/15 01:12:59;;;;;;;17.00;15.07;;;;;;;;;;5135112;27;20468;-66
2021/06/15 01:15:29;;;;;;;17.90;14.60;;;;;;;;;;5134441;27;20422;-66
2021/06/15 01:17:57;;;;;;;19.00;15.27;;;;;;;;;;5134027;27;20443;-66
2021/06/15 01:20:25;;;;;;;17.73;13.50;;;;;;;;;;5134545;27;20528;-66
2021/06/15 01:23:07;;;;;;;17.50;15.40;;;;;;;;;;5134086;27;20487;-65
2021/06/15 01:25:41;;;;;;;21.53;13.97;;;;;;;;;;5134251;27;20440;-66
2021/06/15 01:28:13;;;;;;;17.73;14.63;;;;;;;;;;5133970;27;20462;-66
2021/06/15 01:30:45;;;;;;;21.73;13.73;;;;;;;;;;5134154;27;20418;-65
2021/06/15 01:33:14;;;;;;;18.60;14.60;;;;;;;;;;5134834;27;20520;-67
2021/06/15 01:35:42;;;;;;;15.83;13.03;;;;;;;;;;5134080;27;20445;-66
2021/06/15 01:38:11;;;;;;;15.37;13.73;;;;;;;;;;5134459;27;20470;-66
2021/06/15 01:40:39;;;;;;;17.53;13.60;;;;;;;;;;5134034;27;20521;-66
2021/06/15 01:43:09;;;;;;;18.23;14.33;;;;;;;;;;5133938;28;20999;-67
2021/06/15 01:45:39;;;;;;;18.87;13.50;;;;;;;;;;5134755;28;20986;-65
2021/06/15 01:48:10;;;;;;;20.77;13.37;;;;;;;;;;5134448;28;20444;-66
2021/06/15 01:50:39;;;;;;;14.93;13.20;;;;;;;;;;5134639;28;20476;-67
2021/06/15 01:53:07;;;;;;;17.17;12.83;;;;;;;;;;5133733;28;20478;-66
2021/06/15 01:55:36;;;;;;;21.40;13.90;;;;;;;;;;5134785;28;20430;-66
2021/06/15 01:58:04;;;;;;;20.33;14.23;;;;;;;;;;5133940;28;20995;-66
2021/06/15 02:00:32;;;;;;;16.83;13.60;;;;;;;;;;5134101;28;20445;-66
2021/06/15 02:03:02;;;;;;;20.07;14.50;;;;;;;;;;5133734;28;20442;-66
2021/06/15 02:05:32;;;;;;;19.63;15.00;;;;;;;;;;5134174;28;20437;-66
2021/06/15 02:08:01;;;;;;;17.00;14.50;;;;;;;;;;5133858;28;20444;-66
2021/06/15 02:10:28;;;;;;;20.10;15.27;;;;;;;;;;5134095;28;20442;-67
2021/06/15 02:12:56;;;;;;;17.10;14.40;;;;;;;;;;5133850;28;20565;-67
2021/06/15 02:15:24;;;;;;;20.30;16.13;;;;;;;;;;5133913;28;20460;-66
2021/06/15 02:17:53;;;;;;;21.20;14.47;;;;;;;;;;5133896;28;20444;-67
2021/06/15 02:20:24;;;;;;;17.80;14.53;;;;;;;;;;5134429;28;20445;-66
2021/06/15 02:22:52;;;;;;;19.00;14.53;;;;;;;;;;5133892;28;20798;-67
2021/06/15 02:25:21;;;;;;;20.87;16.37;;;;;;;;;;5133503;28;20444;-66
2021/06/15 02:27:48;;;;;;;23.70;15.40;;;;;;;;;;5133311;27;20473;-66
2021/06/15 02:30:16;;;;;;;19.17;16.37;;;;;;;;;;5136051;27;20467;-67
2021/06/15 02:32:45;;;;;;;17.13;15.10;;;;;;;;;;5137626;27;20557;-66
2021/06/15 02:35:12;;;;;;;22.60;16.00;;;;;;;;;;5137526;27;20474;-66
2021/06/15 02:37:46;;;;;;;22.93;15.50;;;;;;;;;;5137624;27;20436;-66
2021/06/15 02:40:14;;;;;;;23.77;16.77;;;;;;;;;;5137867;27;20440;-66
2021/06/15 02:42:43;;;;;;;22.50;16.30;;;;;;;;;;5138030;27;20575;-66
2021/06/15 02:45:13;;;;;;;22.20;17.60;;;;;;;;;;5137534;27;20855;-66
2021/06/15 02:47:42;;;;;;;19.33;15.23;;;;;;;;;;5136946;27;20446;-66
2021/06/15 02:50:12;;;;;;;19.10;16.03;;;;;;;;;;5137323;27;20460;-66
2021/06/15 02:52:43;;;;;;;20.97;16.47;;;;;;;;;;5137143;27;20481;-66
2021/06/15 02:55:14;;;;;;;20.67;15.87;;;;;;;;;;5137598;27;20438;-66
2021/06/15 02:57:41;;;;;;;23.17;18.33;;;;;;;;;;5137002;27;20442;-66
2021/06/15 03:00:09;;;;;;;23.20;17.30;;;;;;;;;;5137291;27;20451;-65
2021/06/15 03:02:36;;;;;;;24.80;16.90;;;;;;;;;;5137217;27;20542;-66
2021/06/15 03:05:05;;;;;;;22.53;15.90;;;;;;;;;;5136666;27;20442;-66
2021/06/15 03:07:33;;;;;;;21.67;18.10;;;;;;;;;;5137021;27;20864;-65
2021/06/15 03:10:01;;;;;;;20.47;16.57;;;;;;;;;;5137100;27;20449;-67
2021/06/15 03:12:32;;;;;;;21.77;16.53;;;;;;;;;;5137003;27;20805;-66
2021/06/15 03:15:01;;;;;;;21.90;17.60;;;;;;;;;;5137150;27;20430;-67
2021/06/15 03:17:29;;;;;;;22.73;17.50;;;;;;;;;;5136472;27;20438;-66
2021/06/15 03:20:00;;;;;;;24.10;16.00;;;;;;;;;;5137055;27;20530;-66
2021/06/15 03:22:31;;;;;;;25.60;14.97;;;;;;;;;;5136849;27;20438;-66
2021/06/15 03:25:00;;;;;;;21.60;15.93;;;;;;;;;;5137100;27;20432;-66
2021/06/15 03:27:33;;;;;;;21.87;16.63;;;;;;;;;;5136533;27;20532;-66
2021/06/15 03:30:07;;;;;;;21.20;16.70;;;;;;;;;;5136715;27;20430;-66
2021/06/15 03:32:35;;;;;;;19.30;15.73;;;;;;;;;;5136490;27;20555;-66
2021/06/15 03:35:03;;;;;;;21.47;16.70;;;;;;;;;;5136435;27;20446;-66
2021/06/15 03:37:31;;;;;;;22.10;17.20;;;;;;;;;;5136438;27;20788;-67
2021/06/15 03:39:59;;;;;;;21.30;16.40;;;;;;;;;;5136870;27;20442;-66
2021/06/15 03:42:27;;;;;;;20.00;16.70;;;;;;;;;;5135448;27;20446;-67
2021/06/15 03:44:59;;;;;;;19.60;16.80;;;;;;;;;;5136523;27;20438;-66
2021/06/15 03:47:26;;;;;;;25.60;18.10;;;;;;;;;;5135933;27;20433;-66
2021/06/15 03:49:54;;;;;;;22.50;16.97;;;;;;;;;;5136258;27;20915;-66
2021/06/15 03:52:22;;;;;;;19.90;15.30;;;;;;;;;;5136077;27;20481;-66
2021/06/15 03:54:50;;;;;;;23.17;16.43;;;;;;;;;;5136162;27;20434;-66
2021/06/15 03:57:17;;;;;;;23.17;17.00;;;;;;;;;;5136050;27;20436;-66
2021/06/15 03:59:45;;;;;;;23.07;16.20;;;;;;;;;;5135718;27;20440;-66
2021/06/15 04:02:14;;;;;;;19.10;16.20;;;;;;;;;;5135614;27;20448;-66
2021/06/15 04:04:43;;;;;;;22.80;16.23;;;;;;;;;;5136422;27;20468;-67
2021/06/15 04:07:14;;;;;;;22.80;17.67;;;;;;;;;;5135949;27;20526;-67
2021/06/15 04:09:41;;;;;;;23.20;17.30;;;;;;;;;;5135755;27;20542;-67
2021/06/15 04:12:10;;;;;;;21.83;17.20;;;;;;;;;;5136427;27;20433;-66
2021/06/15 04:14:38;;;;;;;22.23;16.70;;;;;;;;;;5135546;27;20463;-66
2021/06/15 04:17:06;;;;;;;25.80;17.33;;;;;;;;;;5135818;27;20473;-67
2021/06/15 04:19:38;;;;;;;24.37;18.30;;;;;;;;;;5135699;27;20499;-65
2021/06/15 04:22:06;;;;;;;26.60;16.60;;;;;;;;;;5135279;27;20426;-66
2021/06/15 04:24:34;;;;;;;23.00;16.07;;;;;;;;;;5136319;27;20436;-66
2021/06/15 04:27:02;;;;;;;20.50;17.50;;;;;;;;;;5135726;27;20480;-65
2021/06/15 04:29:29;;;;;;;18.27;16.13;;;;;;;;;;5136175;27;20521;-66
2021/06/15 04:31:58;;;;;;;23.50;16.53;;;;;;;;;;5135411;27;20525;-66
2021/06/15 04:34:27;;;;;;;19.60;17.50;;;;;;;;;;5122348;27;20471;-66
2021/06/15 04:36:58;;;;;;;21.70;17.70;;;;;;;;;;5114858;28;20846;-66
2021/06/15 04:39:30;;;;;;;18.43;16.47;;;;;;;;;;5131448;27;20446;-65
2021/06/15 04:42:00;;;;;;;27.13;18.60;;;;;;;;;;5135412;27;20429;-65
2021/06/15 04:44:28;;;;;;;19.70;17.60;;;;;;;;;;5135204;27;20441;-65
2021/06/15 04:46:57;;;;;;;23.80;17.70;;;;;;;;;;5135578;27;20438;-66
2021/06/15 04:49:30;;;;;;;25.30;17.83;;;;;;;;;;5135381;27;20438;-65
2021/06/15 04:52:00;;;;;;;21.57;16.43;;;;;;;;;;5134702;27;20970;-65
2021/06/15 04:54:31;;;;;;;25.13;18.43;;;;;;;;;;5133967;27;20485;-65
2021/06/15 04:56:58;;;;;;;24.10;18.67;;;;;;;;;;5135672;27;20437;-65
2021/06/15 04:59:26;;;;;;;20.73;16.27;;;;;;;;;;5134459;27;20566;-66
2021/06/15 05:01:53;;;;;;;21.47;18.83;;;;;;;;;;5134947;27;20469;-65
2021/06/15 05:04:21;;;;;;;25.50;18.40;;;;;;;;;;5117037;27;20447;-65
2021/06/15 05:06:50;;;;;;;21.23;18.10;;;;;;;;;;5114169;28;20445;-67
2021/06/15 05:09:22;;;;;;;25.83;17.50;;;;;;;;;;5114405;28;20478;-66
2021/06/15 05:11:50;;;;;;;24.10;17.30;;;;;;;;;;5114592;28;20446;-65
2021/06/15 05:14:18;;;;;;;24.67;18.07;;;;;;;;;;5114360;28;20834;-65
2021/06/15 05:16:46;;;;;;;22.17;17.87;;;;;;;;;;5113842;28;20438;-65
2021/06/15 05:19:13;;;;;;;26.83;17.50;;;;;;;;;;5114251;28;20945;-66
2021/06/15 05:21:42;;;;;;;24.43;17.70;;;;;;;;;;5114215;28;20441;-65
2021/06/15 05:24:12;;;;;;;19.50;16.03;;;;;;;;;;5134357;27;20474;-65
2021/06/15 05:26:40;;;;;;;26.67;18.80;;;;;;;;;;5129551;27;20806;-66
2021/06/15 05:29:07;;;;;;;21.30;18.00;;;;;;;;;;5126379;27;20441;-65
2021/06/15 05:31:34;;;;;;;23.47;18.43;;;;;;;;;;5134271;27;20442;-65
2021/06/15 05:34:02;;;;;;;23.60;19.37;;;;;;;;;;5134386;27;20812;-65
2021/06/15 05:36:29;;;;;;;22.77;17.00;;;;;;;;;;5134800;27;20437;-65
2021/06/15 05:38:56;;;;;;;22.40;17.60;;;;;;;;;;5134146;27;20442;-65
2021/06/15 05:41:23;;;;;;;24.03;19.80;;;;;;;;;;5134117;27;20475;-66
2021/06/15 05:43:52;;;;;;;20.33;18.03;;;;;;;;;;5134155;28;20448;-71
2021/06/15 05:46:19;;;;;;;20.50;18.00;;;;;;;;;;5134334;28;20437;-66
2021/06/15 05:48:46;;;;;;;19.57;16.60;;;;;;;;;;5134039;28;20536;-65
2021/06/15 05:51:13;;;;;;;21.47;18.40;;;;;;;;;;5133960;28;20446;-65
2021/06/15 05:53:40;;;;;;;26.47;17.63;;;;;;;;;;5134205;28;20469;-66
2021/06/15 05:56:08;;;;;;;21.43;16.60;;;;;;;;;;5133811;28;20528;-65
2021/06/15 05:58:35;;;;;;;26.17;18.00;;;;;;;;;;5134180;28;20449;-65
2021/06/15 06:01:04;;;;;;;26.67;17.93;;;;;;;;;;5133805;28;20438;-66
2021/06/15 06:03:34;;;;;;;24.50;18.50;;;;;;;;;;5133849;27;20448;-65
2021/06/15 06:08:46;;;;;;;25.03;21.03;;;;;;;;;;5138010;27;20436;-65
2021/06/15 06:11:14;;;;;;;21.90;18.23;;;;;;;;;;5137868;27;20943;-65
2021/06/15 06:13:41;;;;;;;29.00;21.80;;;;;;;;;;5137670;27;20517;-65
2021/06/15 06:16:12;;;;;;;25.70;20.33;;;;;;;;;;5138144;27;20442;-65
2021/06/15 06:18:40;;;;;;;31.67;21.67;;;;;;;;;;5138056;27;20441;-65
2021/06/15 06:21:09;;;;;;;26.97;21.23;;;;;;;;;;5137958;27;20870;-66
2021/06/15 06:23:37;;;;;;;28.07;21.20;;;;;;;;;;5122316;27;20457;-66
2021/06/15 06:26:04;;;;;;;26.17;21.20;;;;;;;;;;5117187;28;20434;-66
2021/06/15 06:28:31;;;;;;;25.13;20.33;;;;;;;;;;5116883;28;21009;-66
2021/06/15 06:30:59;;;;;;;28.43;20.50;;;;;;;;;;5117002;28;20954;-65
2021/06/15 06:33:27;;;;;;;27.70;19.27;;;;;;;;;;5117181;28;20511;-65
2021/06/15 06:35:54;;;;;;;20.20;18.10;;;;;;;;;;5117151;28;20857;-66
2021/06/15 06:38:22;;;;;;;23.00;20.43;;;;;;;;;;5117138;28;20447;-65
2021/06/15 06:40:49;;;;;;;24.53;21.17;;;;;;;;;;5116986;28;20521;-65
2021/06/15 06:43:17;;;;;;;22.27;19.97;;;;;;;;;;5116947;28;20887;-66
2021/06/15 06:45:44;;;;;;;27.70;17.93;;;;;;;;;;5116552;28;20443;-66
2021/06/15 06:48:12;;;;;;;23.87;19.73;;;;;;;;;;5116908;28;20442;-65
2021/06/15 06:50:40;;;;;;;26.77;20.20;;;;;;;;;;5116410;28;20442;-66
2021/06/15 06:53:08;;;;;;;25.33;18.87;;;;;;;;;;5117252;28;20532;-65
2021/06/15 06:55:35;;;;;;;22.80;17.97;;;;;;;;;;5116312;28;20531;-65
2021/06/15 06:58:02;;;;;;;22.80;19.43;;;;;;;;;;5116411;28;20938;-65
2021/06/15 07:00:29;;;;;;;19.67;17.50;;;;;;;;;;5116325;28;20478;-65
2021/06/15 07:02:57;;;;;;;20.30;17.83;;;;;;;;;;5116669;28;20488;-65
2021/06/15 07:05:24;;;;;;;20.73;17.97;;;;;;;;;;5116547;28;20443;-65
2021/06/15 07:07:53;;;;;;;23.63;17.30;;;;;;;;;;5116496;28;20438;-66
2021/06/15 07:10:20;;;;;;;22.50;17.70;;;;;;;;;;5116525;28;20437;-65
2021/06/15 07:12:48;;;;;;;21.63;17.60;;;;;;;;;;5116730;28;20492;-65
2021/06/15 07:15:15;;;;;;;23.13;17.90;;;;;;;;;;5115919;28;20474;-66
2021/06/15 07:17:42;;;;;;;19.33;17.37;;;;;;;;;;5115841;28;20457;-65
2021/06/15 07:20:10;;;;;;;20.97;17.40;;;;;;;;;;5116752;28;20445;-65
2021/06/15 07:22:37;;;;;;;24.00;17.83;;;;;;;;;;5116086;28;20527;-66
2021/06/15 07:25:07;;;;;;;19.67;16.77;;;;;;;;;;5116495;28;20483;-65
2021/06/15 07:27:34;;;;;;;19.67;15.47;;;;;;;;;;5115988;28;20467;-65
2021/06/15 07:30:02;;;;;;;22.03;16.93;;;;;;;;;;5116139;28;20788;-65
2021/06/15 07:32:29;;;;;;;19.60;15.90;;;;;;;;;;5116075;28;20434;-64
2021/06/15 07:34:56;;;;;;;16.83;14.43;;;;;;;;;;5116053;28;20486;-65
2021/06/15 07:37:23;;;;;;;15.23;13.37;;;;;;;;;;5115710;28;20440;-64
2021/06/15 07:39:51;;;;;;;18.10;15.97;;;;;;;;;;5116216;28;20469;-65
2021/06/15 07:42:19;;;;;;;15.73;14.17;;;;;;;;;;5115912;28;20440;-65
2021/06/15 07:44:46;;;;;;;17.87;14.47;;;;;;;;;;5116206;28;20791;-65
2021/06/15 07:47:14;;;;;;;16.97;14.53;;;;;;;;;;5115820;28;20488;-65
2021/06/15 07:49:41;;;;;;;16.10;14.40;;;;;;;;;;5115756;28;20433;-65
2021/06/15 07:52:08;;;;;;;21.23;13.00;;;;;;;;;;5115364;28;20475;-65
2021/06/15 07:54:36;;;;;;;20.00;15.43;;;;;;;;;;5115625;28;20470;-65
2021/06/15 07:57:03;;;;;;;17.70;14.17;;;;;;;;;;5115310;28;20534;-66
2021/06/15 07:59:32;;;;;;;18.03;14.37;;;;;;;;;;5115437;28;20435;-65
2021/06/15 08:01:59;;;;;;;19.17;14.40;;;;;;;;;;5115117;28;20519;-66
2021/06/15 08:04:27;;;;;;;18.80;13.77;;;;;;;;;;5116096;28;20468;-65
2021/06/15 08:06:54;;;;;;;23.30;14.80;;;;;;;;;;5115462;28;20439;-66
2021/06/15 08:09:22;;;;;;;18.53;14.13;;;;;;;;;;5115487;28;20482;-65
2021/06/15 08:11:49;;;;;;;18.33;12.60;;;;;;;;;;5115295;28;20451;-65
2021/06/15 08:14:16;;;;;;;17.37;11.20;;;;;;;;;;5115629;28;20471;-65
2021/06/15 08:16:45;;;;;;;16.13;12.70;;;;;;;;;;5115512;28;20533;-65
2021/06/15 08:19:12;;;;;;;19.43;12.77;;;;;;;;;;5115366;28;20525;-65
2021/06/15 08:21:39;;;;;;;17.07;12.37;;;;;;;;;;5115363;28;20431;-65
2021/06/15 08:24:09;;;;;;;19.60;12.73;;;;;;;;;;5114927;28;20542;-66
2021/06/15 08:26:36;;;;;;;16.63;11.90;;;;;;;;;;5114553;28;20450;-66
2021/06/15 08:29:03;;;;;;;16.97;11.37;;;;;;;;;;5114946;28;20459;-66
2021/06/15 08:31:31;;;;;;;13.43;11.20;;;;;;;;;;5115672;28;20514;-65
2021/06/15 08:33:59;;;;;;;15.17;11.73;;;;;;;;;;5114846;28;20474;-65
2021/06/15 08:36:26;;;;;;;15.63;11.40;;;;;;;;;;5115403;28;20527;-66
2021/06/15 08:38:54;;;;;;;12.80;11.33;;;;;;;;;;5114817;28;20447;-66
2021/06/15 08:41:22;;;;;;;13.27;10.43;;;;;;;;;;5114732;28;20469;-66
2021/06/15 08:43:49;;;;;;;12.63;10.83;;;;;;;;;;5114400;28;20446;-65
2021/06/15 08:46:18;;;;;;;10.87;8.47;;;;;;;;;;5115059;28;20513;-65
2021/06/15 08:48:45;;;;;;;8.90;8.10;;;;;;;;;;5114489;28;20840;-66
2021/06/15 08:51:14;;;;;;;11.93;6.60;;;;;;;;;;5114271;28;20538;-65
2021/06/15 08:53:41;;;;;;;10.60;9.07;;;;;;;;;;5114672;28;20439;-65
2021/06/15 08:56:21;;;;;;;9.03;7.83;;;;;;;;;;5114149;28;20962;-65
2021/06/15 08:58:57;;;;;;;9.97;6.57;;;;;;;;;;5115270;28;20732;-65
2021/06/15 09:01:24;;;;;;;7.97;6.80;;;;;;;;;;5115061;28;20515;-65
2021/06/15 09:03:52;;;;;;;9.00;7.17;;;;;;;;;;5114400;28;20442;-65
2021/06/15 09:06:20;;;;;;;10.13;7.80;;;;;;;;;;5114322;28;20458;-65
2021/06/15 09:08:51;;;;;;;10.07;8.30;;;;;;;;;;5114847;28;20488;-65
2021/06/15 09:11:19;;;;;;;16.13;9.33;;;;;;;;;;5114775;28;20443;-65
2021/06/15 09:13:47;;;;;;;10.83;7.50;;;;;;;;;;5114090;28;20444;-65
2021/06/15 09:16:22;;;;;;;11.20;7.47;;;;;;;;;;5114172;28;20452;-66
2021/06/15 09:18:49;;;;;;;13.73;8.13;;;;;;;;;;5113980;28;20518;-66
2021/06/15 09:21:37;;;;;;;6.77;5.93;;;;;;;;;;5114075;28;20530;-65
2021/06/15 09:24:05;;;;;;;12.73;8.07;;;;;;;;;;5113701;28;20434;-66
2021/06/15 09:26:51;;;;;;;8.73;7.63;;;;;;;;;;5113981;28;20442;-66
2021/06/15 09:29:19;;;;;;;10.30;7.87;;;;;;;;;;5114153;28;20423;-65
2021/06/15 09:31:53;;;;;;;14.80;7.97;;;;;;;;;;5114181;28;20780;-66
2021/06/15 09:34:21;;;;;;;10.67;9.10;;;;;;;;;;5113566;28;21115;-66
2021/06/15 09:36:49;;;;;;;11.30;9.60;;;;;;;;;;5113783;28;20444;-66
2021/06/15 09:39:16;;;;;;;10.43;9.40;;;;;;;;;;5112920;28;20439;-65
2021/06/15 09:41:44;;;;;;;12.67;8.17;;;;;;;;;;5114096;28;20527;-65
2021/06/15 09:44:18;;;;;;;10.63;8.27;;;;;;;;;;5114229;28;20440;-65
2021/06/15 09:46:46;;;;;;;16.37;7.67;;;;;;;;;;5113464;28;20455;-66
2021/06/15 09:49:13;;;;;;;13.37;8.83;;;;;;;;;;5113719;28;20473;-65
2021/06/15 09:51:41;;;;;;;7.07;6.40;;;;;;;;;;5113615;28;20443;-65
2021/06/15 09:54:10;;;;;;;9.30;6.73;;;;;;;;;;5113683;28;20530;-65
2021/06/15 09:56:42;;;;;;;8.90;7.80;;;;;;;;;;5114429;28;20514;-65
2021/06/15 09:59:09;;;;;;;10.97;8.60;;;;;;;;;;5113776;28;20925;-65
2021/06/15 10:01:37;;;;;;;8.60;7.80;;;;;;;;;;5113760;28;20500;-65
2021/06/15 10:04:08;;;;;;;11.63;7.67;;;;;;;;;;5114066;28;20435;-65
2021/06/15 10:06:35;;;;;;;8.93;7.07;;;;;;;;;;5113577;28;20434;-65
2021/06/15 10:09:03;;;;;;;10.13;7.77;;;;;;;;;;5113288;28;20452;-65
2021/06/15 10:11:32;;;;;;;10.60;8.90;;;;;;;;;;5113492;28;20439;-65
2021/06/15 10:13:59;;;;;;;12.00;8.50;;;;;;;;;;5113436;28;20442;-65
2021/06/15 10:16:27;;;;;;;10.30;8.10;;;;;;;;;;5113176;28;20589;-66
2021/06/15 10:18:54;;;;;;;10.23;7.10;;;;;;;;;;5113127;28;20457;-66
2021/06/15 10:21:21;;;;;;;9.90;6.87;;;;;;;;;;5113053;28;20522;-66
2021/06/15 10:23:48;;;;;;;11.63;7.50;;;;;;;;;;5113137;28;20469;-66
2021/06/15 10:26:16;;;;;;;13.47;7.80;;;;;;;;;;5113852;28;20436;-66
2021/06/15 10:28:44;;;;;;;8.67;7.77;;;;;;;;;;5113171;28;20553;-66
2021/06/15 10:31:12;;;;;;;8.03;7.23;;;;;;;;;;5113252;28;20484;-65
2021/06/15 10:33:43;;;;;;;8.10;5.43;;;;;;;;;;5112987;28;20442;-65
2021/06/15 10:36:10;;;;;;;8.00;5.07;;;;;;;;;;5113212;28;20476;-66
2021/06/15 10:38:40;;;;;;;11.27;5.70;;;;;;;;;;5113108;28;20448;-65
2021/06/15 10:41:08;;;;;;;6.27;4.60;;;;;;;;;;5113372;28;20516;-66
2021/06/15 10:43:46;;;;;;;9.13;5.77;;;;;;;;;;5113463;28;20529;-65
2021/06/15 10:46:31;;;;;;;9.90;6.50;;;;;;;;;;5113049;28;20475;-65
2021/06/15 10:49:00;;;;;;;7.67;5.30;;;;;;;;;;5113386;28;20948;-65
2021/06/15 10:51:29;;;;;;;6.93;4.60;;;;;;;;;;5114273;28;20475;-65
2021/06/15 10:54:02;;;;;;;7.30;4.40;;;;;;;;;;5116828;28;20519;-65
2021/06/15 10:56:32;;;;;;;12.93;5.77;;;;;;;;;;5117534;28;20565;-66
2021/06/15 10:59:04;;;;;;;8.60;5.40;;;;;;;;;;5116723;28;20441;-65
2021/06/15 11:01:32;;;;;;;5.10;4.60;;;;;;;;;;5116716;28;20429;-66
2021/06/15 11:03:59;;;;;;;6.33;5.80;;;;;;;;;;5116361;28;20468;-66
2021/06/15 11:06:43;;;;;;;8.30;5.50;;;;;;;;;;5116630;28;20448;-66
2021/06/15 11:09:33;;;;;;;7.53;4.30;;;;;;;;;;5116781;28;20448;-65
2021/06/15 11:12:18;;;;;;;9.40;4.30;;;;;;;;;;5116188;28;20934;-65
2021/06/15 11:15:00;;;;;;;11.47;2.80;;;;;;;;;;5116140;28;20475;-65
2021/06/15 11:17:43;;;;;;;12.63;4.10;;;;;;;;;;5115274;28;20524;-65
2021/06/15 11:20:11;;;;;;;3.30;2.37;;;;;;;;;;5116455;28;20433;-66
2021/06/15 11:22:38;;;;;;;4.47;3.43;;;;;;;;;;5116089;28;20870;-65
2021/06/15 11:25:06;;;;;;;5.43;3.53;;;;;;;;;;5115738;28;20487;-67
2021/06/15 11:27:34;;;;;;;4.80;3.70;;;;;;;;;;5115610;28;20468;-66
2021/06/15 11:30:16;;;;;;;8.03;4.13;;;;;;;;;;5115995;28;20447;-66
2021/06/15 11:32:56;;;;;;;5.63;4.10;;;;;;;;;;5115991;28;20437;-65
2021/06/15 11:35:24;;;;;;;7.93;4.73;;;;;;;;;;5116754;28;20490;-65
2021/06/15 11:37:52;;;;;;;7.23;6.63;;;;;;;;;;5115819;28;20777;-66
2021/06/15 11:40:25;;;;;;;4.87;4.47;;;;;;;;;;5116389;28;20522;-65
2021/06/15 11:42:53;;;;;;;9.57;4.90;;;;;;;;;;5115882;28;20430;-66
2021/06/15 11:45:31;;;;;;;4.33;3.10;;;;;;;;;;5115431;28;20537;-66
2021/06/15 11:48:15;;;;;;;3.57;3.00;;;;;;;;;;5115433;28;20442;-65
2021/06/15 11:50:45;;;;;;;5.67;3.73;;;;;;;;;;5115951;28;20473;-65
2021/06/15 11:53:13;;;;;;;6.17;3.53;;;;;;;;;;5115328;28;20536;-66
2021/06/15 11:55:41;;;;;;;4.50;3.63;;;;;;;;;;5115311;28;20470;-65
2021/06/15 11:58:09;;;;;;;25.60;4.23;;;;;;;;;;5115210;28;20495;-65
2021/06/15 12:00:38;;;;;;;3.20;2.90;;;;;;;;;;5115159;28;21011;-66
2021/06/15 12:03:08;;;;;;;5.73;3.30;;;;;;;;;;5114718;28;20529;-66
2021/06/15 12:05:36;;;;;;;6.70;3.17;;;;;;;;;;5115240;28;20449;-66
2021/06/15 12:08:03;;;;;;;5.73;3.33;;;;;;;;;;5115181;28;20438;-66
2021/06/15 12:10:30;;;;;;;3.80;3.50;;;;;;;;;;5114894;28;20446;-66
2021/06/15 12:13:09;;;;;;;2.67;2.47;;;;;;;;;;5115376;28;20445;-66
2021/06/15 12:15:37;;;;;;;2.50;2.30;;;;;;;;;;5115841;28;20501;-65
2021/06/15 12:18:05;;;;;;;3.00;2.00;;;;;;;;;;5115110;28;20438;-65
2021/06/15 12:20:35;;;;;;;4.10;2.53;;;;;;;;;;5115044;28;20777;-66
2021/06/15 12:23:20;;;;;;;4.63;3.13;;;;;;;;;;5115143;28;20522;-65
2021/06/15 12:25:48;;;;;;;3.90;2.20;;;;;;;;;;5115932;28;20421;-65
2021/06/15 12:28:16;;;;;;;6.73;2.70;;;;;;;;;;5115307;28;20474;-65
2021/06/15 12:30:44;;;;;;;2.60;2.20;;;;;;;;;;5114693;28;20445;-65
2021/06/15 12:33:12;;;;;;;5.47;2.63;;;;;;;;;;5114686;28;20474;-66
2021/06/15 12:35:41;;;;;;;3.47;2.00;;;;;;;;;;5114678;28;20580;-66
2021/06/15 12:38:15;;;;;;;7.90;2.63;;;;;;;;;;5115017;28;20529;-66
2021/06/15 12:40:43;;;;;;;7.73;2.53;;;;;;;;;;5114942;28;20469;-66
2021/06/15 12:43:11;;;;;;;5.47;2.60;;;;;;;;;;5114694;28;20440;-65
2021/06/15 12:45:39;;;;;;;4.10;2.30;;;;;;;;;;5114752;28;20443;-67
2021/06/15 12:48:21;;;;;;;16.27;3.50;;;;;;;;;;5115102;28;20444;-68
2021/06/15 12:51:01;;;;;;;3.13;1.77;;;;;;;;;;5111031;28;20478;-67
2021/06/15 12:53:30;;;;;;;6.93;2.30;;;;;;;;;;5114555;28;20943;-68
2021/06/15 12:55:57;;;;;;;5.13;2.50;;;;;;;;;;5114911;28;20808;-67
2021/06/15 12:58:27;;;;;;;5.23;4.67;;;;;;;;;;5115032;28;20431;-66
2021/06/15 13:00:54;;;;;;;7.23;4.30;;;;;;;;;;5114638;28;20439;-68
2021/06/15 13:03:21;;;;;;;8.20;2.70;;;;;;;;;;5114217;28;20487;-67
2021/06/15 13:05:50;;;;;;;4.03;2.27;;;;;;;;;;5120116;27;20450;-67
2021/06/15 13:08:17;;;;;;;6.80;2.17;;;;;;;;;;5116227;28;20473;-67
2021/06/15 13:10:45;;;;;;;2.30;2.00;;;;;;;;;;5113712;28;20954;-67
2021/06/15 13:13:15;;;;;;;4.67;2.27;;;;;;;;;;5113722;28;20522;-67
2021/06/15 13:15:43;;;;;;;2.67;2.17;;;;;;;;;;5113410;28;20475;-67
2021/06/15 13:18:11;;;;;;;4.63;2.17;;;;;;;;;;5114134;28;20501;-67
2021/06/15 13:20:38;;;;;;;3.57;1.90;;;;;;;;;;5113618;28;20413;-67
2021/06/15 13:23:18;;;;;;;5.73;2.10;;;;;;;;;;5124998;27;20530;-68
2021/06/15 13:25:46;;;;;;;6.60;2.20;;;;;;;;;;5134189;27;20521;-67
2021/06/15 13:28:13;;;;;;;6.13;2.20;;;;;;;;;;5134848;27;20474;-67
2021/06/15 13:30:41;;;;;;;3.23;1.73;;;;;;;;;;5134910;27;20512;-67
2021/06/15 13:33:10;;;;;;;3.00;1.70;;;;;;;;;;5133974;27;20397;-67
2021/06/15 13:35:38;;;;;;;4.80;1.90;;;;;;;;;;5120244;27;20903;-67
2021/06/15 13:38:06;;;;;;;3.87;1.77;;;;;;;;;;5113915;28;20533;-67
2021/06/15 13:40:36;;;;;;;2.10;1.80;;;;;;;;;;5113465;28;20947;-67
2021/06/15 13:43:05;;;;;;;5.03;2.47;;;;;;;;;;5114376;28;21077;-67
2021/06/15 13:45:33;;;;;;;3.27;1.67;;;;;;;;;;5113357;28;20525;-67
2021/06/15 13:48:01;;;;;;;5.33;2.27;;;;;;;;;;5113755;28;20517;-68
2021/06/15 13:50:28;;;;;;;2.83;1.60;;;;;;;;;;5114121;28;20819;-67
2021/06/15 13:52:55;;;;;;;3.33;1.87;;;;;;;;;;5113142;28;20529;-67
2021/06/15 13:55:23;;;;;;;4.93;1.73;;;;;;;;;;5112969;28;20439;-68
2021/06/15 13:57:51;;;;;;;7.03;3.60;;;;;;;;;;5113203;28;20415;-67
2021/06/15 14:00:20;;;;;;;4.33;2.60;;;;;;;;;;5112976;28;20421;-67
2021/06/15 14:02:47;;;;;;;5.87;2.10;;;;;;;;;;5112931;28;20430;-67
2021/06/15 14:05:15;;;;;;;4.40;2.43;;;;;;;;;;5113425;28;20451;-68
2021/06/15 14:07:43;;;;;;;6.60;1.80;;;;;;;;;;5113113;28;20479;-68
2021/06/15 14:10:11;;;;;;;3.50;1.73;;;;;;;;;;5113204;28;20860;-67
2021/06/15 14:12:38;;;;;;;3.40;1.80;;;;;;;;;;5113380;28;20505;-68
2021/06/15 14:15:08;;;;;;;5.57;2.30;;;;;;;;;;5113771;28;20435;-68
2021/06/15 14:17:36;;;;;;;3.30;1.80;;;;;;;;;;5112912;28;20483;-68
2021/06/15 14:20:06;;;;;;;6.50;2.30;;;;;;;;;;5113290;28;20460;-68
2021/06/15 14:22:33;;;;;;;3.57;1.80;;;;;;;;;;5120605;28;20401;-68
2021/06/15 14:25:00;;;;;;;9.60;1.97;;;;;;;;;;5134414;27;20447;-68
2021/06/15 14:27:27;;;;;;;4.40;1.67;;;;;;;;;;5138084;27;20453;-67
2021/06/15 14:29:55;;;;;;;4.43;2.10;;;;;;;;;;5137524;27;20470;-67
2021/06/15 14:32:23;;;;;;;6.97;1.80;;;;;;;;;;5137674;27;20438;-68
2021/06/15 14:34:51;;;;;;;6.50;3.57;;;;;;;;;;5137180;27;20455;-68
2021/06/15 14:37:18;;;;;;;3.73;2.17;;;;;;;;;;5137464;27;20486;-67
2021/06/15 14:39:45;;;;;;;5.20;2.87;;;;;;;;;;5137093;27;20454;-67